Kaktovik, AK

9:44 AM AKST on February 27, 2017 (GMT -0900)
Barter Island LRRS

Weather History for PABA - January, 2014

Change the Weather History Date:

Sunday, January 5, 2014

  Actual Average Record
Temperature  
Mean Temperature 7 °F -  
Max Temperature 9 °F 0 °F 26 °F (2017)
Min Temperature 5 °F -13 °F -38 °F (1997)
Degree Days  
Heating Degree Days 58    
Moisture  
Dew Point 3 °F    
Average Humidity 83    
Maximum Humidity 92    
Minimum Humidity 79    
Precipitation  
Precipitation 0.00 in - - ()
Sea Level Pressure  
Sea Level Pressure 30.09 in    
Wind  
Wind Speed 41 mph (ESE)    
Max Wind Speed 51 mph    
Max Gust Speed 59 mph    
Visibility 2 miles    
Events Fog , Snow    
Averages and records for this station are not official NWS values.
T = Trace of Precipitation, MM = Missing Value Source: NWS Daily Summary

Daily Weather History Graph

Daily Weather History Graph

Search for Another Location

Airport or City:

Trip Planner

Search our weather history database for the weather conditions in past years. The results will help you decide how hot, cold, wet, or windy it might be!

Date:

Astronomy

Dec. 31, 1969 Rise Set
Actual Time Sun does not rise Sun does not rise
Civil Twilight 10:18 AM AKST 3:01 PM AKST
Nautical Twilight 8:36 AM AKST 4:43 PM AKST
Astronomical Twilight 7:17 AM AKST 6:02 PM AKST
Moon 10:59 AM AKST (1/5) 11:03 PM AKST (1/5)
Length of Visible Light 4h 43m
Length of Day
0h 00m
Waxing Crescent, 26% of the Moon is Illuminated
Jan 5
Waxing Crescent
Jan 7
First Quarter
Jan 15
Full
Jan 23
Last Quarter
Jan 30
New

Hourly Weather History & Observations

Time (AKST) Temp. Windchill Dew Point Humidity Pressure Visibility Wind Dir Wind Speed Gust Speed Precip Events Conditions
12:01 AM 7.0 °F -16.3 °F 3.0 °F 84% 30.30 in 4.0 mi ESE 29.9 mph - 0.00 in Snow Light Snow
12:15 AM 6.8 °F -17.6 °F 3.2 °F 85% 30.30 in 2.5 mi ESE 33.4 mph - 0.00 in Snow Light Snow
1:01 AM 8.1 °F -15.2 °F 3.9 °F 83% 30.29 in 2.5 mi ESE 31.1 mph - 0.00 in Snow Light Snow
1:41 AM 8.6 °F -14.5 °F 5.0 °F 85% 30.28 in 1.8 mi ESE 31.1 mph 39.1 mph 0.00 in Snow Light Snow
1:48 AM 8.6 °F -14.8 °F 5.0 °F 85% 30.28 in 2.5 mi ESE 32.2 mph - 0.00 in Snow Light Snow
2:01 AM 8.1 °F -15.5 °F 5.0 °F 87% 30.27 in 2.5 mi ESE 32.2 mph - 0.00 in Snow Light Snow
2:18 AM 8.6 °F -15.7 °F 6.8 °F 92% 30.27 in 1.2 mi ESE 35.7 mph - 0.00 in Snow Light Snow
2:53 AM 8.6 °F -16.8 °F 6.8 °F 92% 30.25 in 1.2 mi ESE 40.3 mph - N/A Snow Light Snow
3:01 AM 8.6 °F -16.6 °F 6.8 °F 92% 30.25 in 1.0 mi ESE 39.1 mph 48.3 mph N/A Snow Light Snow
3:30 AM 8.6 °F -15.1 °F 5.0 °F 85% 30.24 in 1.2 mi ESE 33.4 mph - N/A Snow Light Snow
4:01 AM 8.6 °F -16.8 °F 5.0 °F 85% 30.23 in 0.8 mi ESE 40.3 mph 46.0 mph N/A Snow Light Snow
4:09 AM 8.6 °F -16.6 °F 5.0 °F 85% 30.23 in 1.0 mi East 39.1 mph 46.0 mph N/A Snow Light Snow
4:21 AM 8.6 °F -16.8 °F 5.0 °F 85% 30.22 in 0.8 mi ESE 40.3 mph 50.6 mph N/A Snow Light Snow
4:39 AM 8.6 °F -18.1 °F 5.0 °F 85% 30.21 in 0.8 mi ESE 46.0 mph 50.6 mph N/A Snow Light Snow
5:01 AM 8.6 °F -16.8 °F 3.2 °F 79% 30.20 in 0.8 mi East 40.3 mph 54.1 mph N/A Snow Light Snow
5:37 AM 8.6 °F -17.8 °F 3.2 °F 79% 30.19 in 1.0 mi ESE 44.9 mph 49.5 mph N/A Snow Light Snow
5:44 AM 8.6 °F -17.8 °F 3.2 °F 79% 30.19 in 0.8 mi ESE 44.9 mph 51.8 mph N/A Snow Light Snow
5:57 AM 8.6 °F -18.6 °F 3.2 °F 79% 30.18 in 0.8 mi ESE 48.3 mph 55.2 mph N/A Snow Light Snow
6:21 AM 8.6 °F -17.1 °F 3.2 °F 79% 30.18 in 0.8 mi East 41.4 mph 54.1 mph N/A Snow Light Snow
6:54 AM 6.8 °F -20.6 °F 1.4 °F 79% 30.16 in 1.5 mi East 46.0 mph 55.2 mph N/A Snow Light Snow
6:59 AM 6.8 °F -20.1 °F 1.4 °F 79% 30.16 in 3.0 mi East 43.7 mph 52.9 mph N/A Snow Light Snow
7:01 AM 7.0 °F -20.4 °F 1.9 °F 80% 30.16 in 7.0 mi East 46.0 mph 54.1 mph N/A Snow Light Snow
7:43 AM 6.8 °F -21.6 °F 1.4 °F 79% 30.15 in 1.8 mi ESE 50.6 mph 55.2 mph 0.00 in Snow Light Snow
7:46 AM 6.8 °F -20.4 °F 1.4 °F 79% 30.16 in 1.0 mi ESE 44.9 mph 55.2 mph 0.00 in Snow Light Snow
7:54 AM 5.0 °F -23.9 °F 1.4 °F 85% 30.15 in 0.8 mi ESE 49.5 mph 55.2 mph 0.00 in Snow Light Snow
8:01 AM 5.0 °F -23.9 °F 1.4 °F 85% 30.14 in 0.8 mi ESE 49.5 mph 55.2 mph 0.00 in Snow Light Snow
8:08 AM 5.0 °F -22.1 °F 1.4 °F 85% 30.14 in 0.5 mi East 41.4 mph 54.1 mph 0.00 in Fog , Snow Snow
8:29 AM 6.8 °F -21.1 °F 3.2 °F 85% 30.14 in - ESE 48.3 mph 54.1 mph N/A Snow Snow
8:39 AM 6.8 °F -20.6 °F 3.2 °F 85% 30.14 in 0.5 mi ESE 46.0 mph 54.1 mph N/A Fog , Snow Light Snow
8:54 AM 6.8 °F -21.1 °F 3.2 °F 85% 30.12 in - ESE 48.3 mph 55.2 mph N/A Snow Light Snow
9:01 AM 6.8 °F -20.6 °F 3.2 °F 85% 30.12 in 0.8 mi ESE 46.0 mph 55.2 mph N/A Snow Light Snow
9:26 AM 6.8 °F -21.1 °F 1.4 °F 79% 30.11 in 1.0 mi ESE 48.3 mph 54.1 mph N/A Snow Light Snow
9:34 AM 6.8 °F -20.9 °F 1.4 °F 79% 30.10 in 2.0 mi ESE 47.2 mph 54.1 mph N/A Snow Light Snow
9:42 AM 6.8 °F -20.1 °F 1.4 °F 79% 30.11 in 8.0 mi East 43.7 mph 56.4 mph N/A Snow Light Snow
10:01 AM 6.1 °F -21.1 °F 1.9 °F 83% 30.10 in 10.0 mi ESE 43.7 mph - N/A   Clear
10:29 AM 6.8 °F -20.1 °F 1.4 °F 79% 30.10 in 1.8 mi East 43.7 mph 52.9 mph 0.00 in Snow Light Snow
10:38 AM 6.8 °F -20.4 °F 1.4 °F 79% 30.10 in 3.0 mi ESE 44.9 mph 51.8 mph 0.00 in Snow Light Snow
11:01 AM 7.0 °F -19.4 °F 1.9 °F 80% 30.10 in 10.0 mi ESE 41.4 mph 54.1 mph 0.00 in   Clear
12:01 PM 7.0 °F -19.9 °F 1.9 °F 80% 30.08 in 10.0 mi ESE 43.7 mph 54.1 mph 0.00 in   Clear
12:59 PM 8.6 °F -17.4 °F 3.2 °F 79% 30.07 in 2.0 mi ESE 42.6 mph 52.9 mph 0.00 in Snow Light Snow
1:01 PM 8.1 °F -18.6 °F 3.9 °F 83% 30.07 in 2.5 mi ESE 44.9 mph 50.6 mph 0.00 in Snow Light Snow
1:08 PM 8.6 °F -16.3 °F 3.2 °F 79% 30.08 in 7.0 mi ESE 38.0 mph 50.6 mph 0.00 in Snow Light Snow
2:01 PM 8.1 °F -19.1 °F 3.0 °F 80% 30.06 in 10.0 mi ESE 47.2 mph 54.1 mph 0.00 in   Clear
3:01 PM 8.1 °F -18.6 °F 3.9 °F 83% 30.05 in 9.0 mi ESE 44.9 mph 54.1 mph N/A   Partly Cloudy
4:01 PM 9.0 °F -17.3 °F 3.9 °F 80% 30.03 in 10.0 mi ESE 44.9 mph 52.9 mph N/A   Clear
5:01 PM 8.1 °F -19.5 °F 3.0 °F 80% 30.01 in 7.0 mi East 49.5 mph 57.5 mph N/A   Clear
5:09 PM 6.8 °F -20.4 °F 3.2 °F 85% 30.01 in 1.8 mi East 44.9 mph 57.5 mph 0.00 in Snow Light Snow
5:15 PM 6.8 °F -20.6 °F 3.2 °F 85% 30.01 in 0.8 mi East 46.0 mph 51.8 mph 0.00 in Snow Light Snow
5:23 PM 6.8 °F -20.6 °F 3.2 °F 85% 30.01 in 0.8 mi East 46.0 mph 54.1 mph 0.00 in Snow Light Snow
5:58 PM 8.6 °F -18.6 °F 3.2 °F 79% 30.00 in 0.8 mi East 48.3 mph 54.1 mph N/A Snow Light Snow
6:01 PM 8.1 °F -18.8 °F 3.9 °F 83% 30.00 in 0.8 mi East 46.0 mph 54.1 mph N/A Snow Light Snow
6:27 PM 8.6 °F -18.6 °F 5.0 °F 85% 29.99 in 0.8 mi East 48.3 mph 52.9 mph N/A Snow Light Snow
6:44 PM 8.6 °F -17.4 °F 5.0 °F 85% 29.99 in 0.5 mi East 42.6 mph 51.8 mph N/A Fog , Snow Snow
7:01 PM 8.1 °F -18.6 °F 5.0 °F 87% 29.98 in 0.5 mi East 44.9 mph 51.8 mph N/A Fog , Snow Snow
7:17 PM 8.6 °F -17.6 °F 5.0 °F 85% 29.98 in 0.8 mi East 43.7 mph 50.6 mph 0.00 in Snow Light Snow
7:40 PM 8.6 °F -18.1 °F 5.0 °F 85% 29.97 in 0.5 mi East 46.0 mph - 0.00 in Fog , Snow Snow
7:54 PM 8.6 °F -17.8 °F 5.0 °F 85% 29.97 in 0.8 mi East 44.9 mph - 0.00 in Snow Light Snow
8:01 PM 8.6 °F -18.6 °F 5.0 °F 85% 29.97 in 0.5 mi East 48.3 mph 55.2 mph 0.00 in Fog , Snow Snow
8:08 PM 8.6 °F -18.3 °F 5.0 °F 85% 29.97 in 0.8 mi East 47.2 mph 55.2 mph 0.00 in Snow Light Snow
8:29 PM 8.6 °F -18.6 °F 5.0 °F 85% 29.96 in 0.5 mi East 48.3 mph 58.7 mph N/A Fog , Snow Snow
8:45 PM 8.6 °F -18.1 °F 5.0 °F 85% 29.96 in 0.2 mi East 46.0 mph 55.2 mph N/A Fog , Snow Heavy Snow
9:01 PM 8.1 °F -19.1 °F 5.0 °F 87% 29.96 in 0.2 mi East 47.2 mph 57.5 mph N/A Fog , Snow Heavy Snow
9:11 PM 8.6 °F -18.8 °F 3.2 °F 79% 29.96 in 0.8 mi East 49.5 mph 57.5 mph 0.00 in Snow Light Snow
9:16 PM 8.6 °F -18.8 °F 3.2 °F 79% 29.96 in 1.2 mi East 49.5 mph 57.5 mph 0.00 in Snow Light Snow
9:46 PM 8.6 °F -18.3 °F 3.2 °F 79% 29.96 in 1.0 mi East 47.2 mph 58.7 mph N/A Snow Light Snow
10:01 PM 6.8 °F -20.9 °F 3.2 °F 85% 29.97 in 0.8 mi East 47.2 mph 58.7 mph N/A Snow Light Snow
10:09 PM 6.8 °F -20.6 °F 3.2 °F 85% 29.96 in 0.5 mi East 46.0 mph 51.8 mph N/A Fog , Snow Snow
10:24 PM 6.8 °F -20.6 °F 3.2 °F 85% 29.96 in 1.0 mi East 46.0 mph 55.2 mph N/A Snow Light Snow
10:36 PM 6.8 °F -20.1 °F 3.2 °F 85% 29.96 in 0.8 mi East 43.7 mph 51.8 mph N/A Snow Light Snow
10:44 PM 6.8 °F -19.6 °F 3.2 °F 85% 29.96 in 0.5 mi East 41.4 mph 48.3 mph N/A Fog , Snow Snow
11:01 PM 7.0 °F -20.8 °F 3.9 °F 87% 29.96 in 0.5 mi East 48.3 mph 55.2 mph N/A Fog , Snow Snow
11:06 PM 6.8 °F -21.1 °F 3.2 °F 85% 29.96 in 1.0 mi East 48.3 mph 55.2 mph 0.00 in Snow Light Snow
11:09 PM 6.8 °F -20.6 °F 3.2 °F 85% 29.96 in 1.5 mi East 46.0 mph 57.5 mph 0.00 in Snow Light Snow
11:37 PM 6.8 °F -19.6 °F 3.2 °F 85% 29.97 in 0.8 mi East 41.4 mph 54.1 mph N/A Snow Light Snow
11:48 PM 6.8 °F -21.6 °F 3.2 °F 85% 29.97 in 1.2 mi East 50.6 mph 57.5 mph N/A Snow Light Snow